Antioch, Tennessee
Current Conditions -  °F | °C
As of 11:53 PM on Wednesday 28 Jan 2015 (Local Time) from KBNA Reporting Station
Broken Clouds Broken Clouds  
Wind Chill:   Ceiling: 25000
Heat Index:   Visibility: 10mi
Dew Point: -2°   Wind: 12mph
Humidity: 53%   Direction: 160°SSE
Pressure: 30.14"   Gusts: NA
Location:  36.06°N, 86.67°W
Report Text: KBNA 290553Z 16010KT 10SM BKN250 07/M02 A3014 RMK AO2 SLP207 T00671022 10083 20039 401061011 58002 $
Loading
Personal Weather Stations






























Interactive Weather Map New forecast layout! Learn more

10-Day Weather Forecast

Advertisements
Track Severe Weather on mobile